Time;durP1;ratioP1;P1;durP2;ratioP2;P2;SDS_P1;SDS_P2;PMS_P1;PMS_P2;Temp;Humidity;BMP_temperature;BMP_pressure;BME280_temperature;BME280_humidity;BME280_pressure;Samples;Min_cycle;Max_cycle;Signal;HPM_P1;HPM_P2
2021/01/24 00:01:40;;;;;;;22.00;12.33;;;3.80;93.20;;;;;;4406420;32;20213;-64
2021/01/24 00:04:06;;;;;;;26.03;12.80;;;3.80;93.30;;;;;;4404926;32;20165;-64
2021/01/24 00:06:33;;;;;;;23.50;12.90;;;3.90;93.30;;;;;;4402348;32;20163;-65
2021/01/24 00:08:59;;;;;;;20.93;12.57;;;3.80;93.20;;;;;;4398133;32;20156;-64
2021/01/24 00:11:25;;;;;;;20.60;12.03;;;3.80;93.20;;;;;;4405676;32;20214;-64
2021/01/24 00:13:53;;;;;;;22.10;12.03;;;3.80;93.20;;;;;;4406593;32;20208;-64
2021/01/24 00:16:19;;;;;;;23.73;11.97;;;3.70;93.10;;;;;;4407470;32;20207;-65
2021/01/24 00:18:45;;;;;;;23.50;12.43;;;3.70;93.10;;;;;;4405820;32;20176;-64
2021/01/24 00:21:11;;;;;;;19.80;12.20;;;3.70;93.20;;;;;;4401258;32;20204;-64
2021/01/24 00:23:38;;;;;;;28.27;12.63;;;3.70;93.20;;;;;;4404912;32;20172;-63
2021/01/24 00:26:04;;;;;;;20.27;11.70;;;3.70;93.00;;;;;;4406360;32;20200;-64
2021/01/24 00:28:30;;;;;;;23.30;11.87;;;3.70;93.10;;;;;;4406940;32;20580;-64
2021/01/24 00:30:57;;;;;;;18.13;10.83;;;3.70;93.20;;;;;;4405780;32;20255;-64
2021/01/24 00:33:24;;;;;;;20.50;11.27;;;3.70;93.10;;;;;;4406131;32;20252;-64
2021/01/24 00:35:50;;;;;;;17.63;10.67;;;3.60;92.50;;;;;;4406385;32;20148;-64
2021/01/24 00:38:16;;;;;;;18.57;11.87;;;3.60;92.80;;;;;;4407119;32;20238;-64
2021/01/24 00:40:42;;;;;;;20.60;11.43;;;3.50;92.70;;;;;;4407293;32;20182;-64
2021/01/24 00:43:09;;;;;;;21.97;11.70;;;3.50;92.80;;;;;;4398671;32;20207;-66
2021/01/24 00:45:35;;;;;;;19.87;11.07;;;3.50;92.90;;;;;;4396109;32;20172;-63
2021/01/24 00:48:03;;;;;;;21.17;12.30;;;3.60;93.00;;;;;;4397379;32;20480;-64
2021/01/24 00:50:29;;;;;;;21.07;11.20;;;3.50;92.70;;;;;;4404026;32;20269;-64
2021/01/24 00:52:56;;;;;;;20.63;12.30;;;3.40;92.70;;;;;;4405580;32;20220;-64
2021/01/24 00:55:22;;;;;;;19.23;11.13;;;3.30;92.40;;;;;;4405907;32;20266;-64
2021/01/24 00:57:49;;;;;;;19.40;11.90;;;3.30;92.20;;;;;;4405435;32;20217;-64
2021/01/24 01:00:16;;;;;;;21.47;11.63;;;3.30;92.50;;;;;;4405841;32;20631;-64
2021/01/24 01:02:42;;;;;;;19.60;10.90;;;3.30;92.30;;;;;;4402990;32;20493;-63
2021/01/24 01:05:10;;;;;;;18.97;10.27;;;3.30;92.50;;;;;;4405533;32;20203;-64
2021/01/24 01:07:36;;;;;;;20.97;11.43;;;3.40;92.80;;;;;;4405522;32;20252;-64
2021/01/24 01:10:03;;;;;;;21.20;10.50;;;3.40;93.10;;;;;;4399780;32;20152;-64
2021/01/24 01:12:29;;;;;;;20.57;11.47;;;3.40;93.10;;;;;;4401304;32;20220;-64
2021/01/24 01:14:56;;;;;;;18.20;10.00;;;3.40;93.00;;;;;;4406293;32;20216;-65
2021/01/24 01:17:22;;;;;;;18.13;11.00;;;3.30;92.60;;;;;;4403576;32;20160;-63
2021/01/24 01:19:48;;;;;;;18.80;10.73;;;3.30;92.80;;;;;;4405919;32;20172;-64
2021/01/24 01:22:15;;;;;;;22.27;10.83;;;3.20;92.50;;;;;;4404753;32;20156;-64
2021/01/24 01:24:42;;;;;;;17.30;9.57;;;3.20;92.70;;;;;;4405692;32;20148;-65
2021/01/24 01:27:08;;;;;;;21.63;10.70;;;3.20;92.60;;;;;;4405825;32;20789;-64
2021/01/24 01:29:34;;;;;;;18.97;10.87;;;3.20;92.70;;;;;;4402057;32;20242;-65
2021/01/24 01:32:00;;;;;;;20.63;10.23;;;3.20;92.90;;;;;;4404481;32;20205;-63
2021/01/24 01:34:27;;;;;;;19.67;10.30;;;3.20;92.80;;;;;;4403409;32;20211;-63
2021/01/24 01:36:53;;;;;;;20.93;10.47;;;3.20;92.90;;;;;;4395902;32;20174;-64
2021/01/24 01:39:20;;;;;;;22.10;10.80;;;3.20;93.00;;;;;;4404762;32;20254;-65
2021/01/24 01:41:46;;;;;;;18.80;9.97;;;3.30;93.10;;;;;;4403214;32;20203;-63
2021/01/24 01:44:13;;;;;;;18.43;10.63;;;3.30;93.20;;;;;;4404377;32;20207;-64
2021/01/24 01:46:40;;;;;;;16.93;10.97;;;3.30;93.40;;;;;;4404497;32;20194;-63
2021/01/24 01:49:07;;;;;;;16.03;10.10;;;3.30;93.50;;;;;;4404865;32;20211;-63
2021/01/24 01:51:33;;;;;;;20.77;10.43;;;3.30;93.50;;;;;;4404004;32;20172;-64
2021/01/24 01:54:00;;;;;;;18.63;11.33;;;3.40;93.50;;;;;;4401754;32;20165;-63
2021/01/24 01:56:27;;;;;;;14.47;10.20;;;3.50;93.40;;;;;;4398853;32;20196;-63
2021/01/24 01:58:54;;;;;;;17.33;10.13;;;3.50;93.30;;;;;;4394426;32;20312;-63
2021/01/24 02:01:30;;;;;;;17.03;10.57;;;3.50;93.20;;;;;;4400506;32;20212;-63
2021/01/24 02:04:06;;;;;;;16.07;10.77;;;3.50;93.30;;;;;;4399799;32;20219;-63
2021/01/24 02:06:38;;;;;;;21.90;11.00;;;3.50;93.30;;;;;;4404134;32;20152;-64
2021/01/24 02:09:10;;;;;;;20.97;11.10;;;3.40;93.10;;;;;;4403227;32;20215;-63
2021/01/24 02:11:46;;;;;;;16.27;10.50;;;3.50;93.20;;;;;;4392884;32;20152;-64
2021/01/24 02:14:20;;;;;;;20.07;11.50;;;3.50;93.30;;;;;;4397782;32;20189;-64
2021/01/24 02:16:48;;;;;;;19.93;11.07;;;3.50;93.30;;;;;;4403928;32;20223;-64
2021/01/24 02:19:24;;;;;;;13.60;9.70;;;3.60;93.30;;;;;;4403628;32;20535;-64
2021/01/24 02:21:51;;;;;;;21.40;9.50;;;3.60;93.30;;;;;;4406671;32;20484;-64
2021/01/24 02:24:18;;;;;;;23.20;11.07;;;3.50;93.20;;;;;;4401406;32;20151;-64
2021/01/24 02:26:55;;;;;;;18.43;11.33;;;3.50;93.30;;;;;;4408663;32;20174;-63
2021/01/24 02:29:28;;;;;;;17.70;10.67;;;3.40;93.20;;;;;;4406462;32;20199;-64
2021/01/24 02:31:59;;;;;;;17.47;9.77;;;3.30;93.00;;;;;;4407201;32;20493;-64
2021/01/24 02:34:30;;;;;;;20.17;10.33;;;3.30;93.00;;;;;;4405865;32;20207;-64
2021/01/24 02:36:58;;;;;;;20.43;10.60;;;3.30;93.00;;;;;;4406689;32;20205;-64
2021/01/24 02:39:25;;;;;;;18.20;10.57;;;3.40;93.00;;;;;;4407196;32;20246;-65
2021/01/24 02:41:52;;;;;;;17.97;10.03;;;3.40;93.00;;;;;;4404803;32;20645;-63
2021/01/24 02:44:18;;;;;;;17.67;10.70;;;3.50;93.10;;;;;;4406586;32;20213;-64
2021/01/24 02:46:45;;;;;;;15.97;10.00;;;3.50;93.00;;;;;;4407978;32;20193;-64
2021/01/24 02:49:13;;;;;;;17.30;10.57;;;3.50;92.90;;;;;;4407979;32;20212;-63
2021/01/24 02:51:42;;;;;;;17.17;9.90;;;3.50;92.90;;;;;;4396676;32;20184;-63
2021/01/24 02:54:09;;;;;;;15.30;8.97;;;3.60;93.10;;;;;;4394707;32;20163;-64
2021/01/24 02:56:36;;;;;;;20.40;10.90;;;3.60;93.10;;;;;;4402543;32;20209;-63
2021/01/24 02:59:03;;;;;;;17.50;9.57;;;3.60;93.00;;;;;;4404670;32;20273;-63
2021/01/24 03:01:30;;;;;;;16.87;9.83;;;3.60;93.00;;;;;;4406533;32;20585;-64
2021/01/24 03:03:56;;;;;;;20.97;9.67;;;3.50;92.60;;;;;;4406838;32;20234;-64
2021/01/24 03:06:23;;;;;;;16.33;9.87;;;3.40;92.90;;;;;;4405974;32;20223;-64
2021/01/24 03:08:50;;;;;;;17.87;9.83;;;3.40;93.00;;;;;;4407439;32;20204;-64
2021/01/24 03:11:18;;;;;;;17.80;9.83;;;3.40;93.10;;;;;;4398744;32;20252;-63
2021/01/24 03:13:49;;;;;;;16.37;9.40;;;3.40;93.20;;;;;;4405135;32;20176;-63
2021/01/24 03:16:17;;;;;;;21.43;9.70;;;3.40;93.20;;;;;;4246367;32;20168;-64
2021/01/24 03:18:45;;;;;;;12.37;9.07;;;3.40;93.30;;;;;;4408097;32;20211;-64
2021/01/24 03:21:15;;;;;;;18.17;9.87;;;3.40;93.30;;;;;;4406762;32;20219;-64
2021/01/24 03:23:43;;;;;;;17.63;9.30;;;3.40;93.40;;;;;;4406238;32;20624;-63
2021/01/24 03:26:10;;;;;;;19.70;9.77;;;3.50;93.40;;;;;;4407175;32;20227;-63
2021/01/24 03:28:37;;;;;;;16.83;9.43;;;3.50;93.30;;;;;;4408822;32;20227;-63
2021/01/24 03:31:05;;;;;;;15.40;9.13;;;3.50;93.20;;;;;;4406668;32;20224;-63
2021/01/24 03:33:32;;;;;;;17.33;9.17;;;3.50;93.30;;;;;;4406628;32;20168;-63
2021/01/24 03:35:59;;;;;;;18.13;10.10;;;3.50;93.30;;;;;;4398900;32;20159;-64
2021/01/24 03:38:25;;;;;;;21.13;9.23;;;3.50;93.30;;;;;;4395246;32;20211;-64
2021/01/24 03:40:53;;;;;;;17.70;9.33;;;3.50;93.30;;;;;;4401558;32;20596;-63
2021/01/24 03:43:19;;;;;;;15.77;8.97;;;3.60;93.20;;;;;;4398636;32;20207;-63
2021/01/24 03:45:45;;;;;;;12.07;7.57;;;3.50;93.00;;;;;;4397024;32;20212;-63
2021/01/24 03:48:12;;;;;;;18.20;9.10;;;3.50;93.10;;;;;;4395188;32;20212;-63
2021/01/24 03:50:38;;;;;;;18.53;9.53;;;3.50;93.20;;;;;;4395398;32;20204;-63
2021/01/24 03:53:04;;;;;;;15.40;8.63;;;3.40;93.00;;;;;;4407934;32;20211;-64
2021/01/24 03:55:31;;;;;;;13.37;7.63;;;3.40;93.00;;;;;;4406820;32;20197;-64
2021/01/24 03:57:58;;;;;;;11.50;7.23;;;3.40;92.90;;;;;;4407933;32;20149;-63
2021/01/24 04:00:24;;;;;;;16.10;8.30;;;3.40;92.90;;;;;;4406995;32;20184;-64
2021/01/24 04:02:51;;;;;;;12.97;7.23;;;3.40;93.00;;;;;;4406363;32;20197;-63
2021/01/24 04:05:17;;;;;;;13.37;8.37;;;3.40;93.00;;;;;;4404972;32;20634;-63
2021/01/24 04:07:43;;;;;;;13.33;7.27;;;3.30;93.00;;;;;;4407504;32;20200;-64
2021/01/24 04:10:11;;;;;;;15.90;8.43;;;3.30;93.10;;;;;;4401887;32;20497;-63
2021/01/24 04:12:37;;;;;;;13.73;7.80;;;3.20;93.20;;;;;;4407074;32;20211;-64
2021/01/24 04:15:06;;;;;;;16.73;9.27;;;3.20;93.30;;;;;;4406253;32;20220;-63
2021/01/24 04:17:32;;;;;;;13.63;7.83;;;3.20;93.50;;;;;;4395525;32;20281;-64
2021/01/24 04:19:58;;;;;;;12.50;7.23;;;3.20;93.50;;;;;;4408389;32;20186;-63
2021/01/24 04:22:25;;;;;;;12.87;7.57;;;3.20;93.30;;;;;;4399376;32;20208;-64
2021/01/24 04:24:51;;;;;;;19.53;7.53;;;3.20;93.30;;;;;;4395566;32;20227;-63
2021/01/24 04:27:24;;;;;;;12.80;7.33;;;3.20;93.40;;;;;;4391961;32;20263;-64
2021/01/24 04:29:50;;;;;;;11.70;7.03;;;3.20;93.50;;;;;;4403043;32;20212;-63
2021/01/24 04:32:17;;;;;;;10.73;7.10;;;3.30;93.50;;;;;;4404091;32;20181;-63
2021/01/24 04:34:43;;;;;;;12.80;7.33;;;3.30;93.40;;;;;;4405944;32;20207;-63
2021/01/24 04:37:09;;;;;;;11.60;6.63;;;3.40;93.40;;;;;;4406891;32;20255;-63
2021/01/24 04:39:36;;;;;;;15.37;7.10;;;3.40;93.30;;;;;;4405469;32;20200;-63
2021/01/24 04:42:03;;;;;;;16.93;7.93;;;3.30;93.10;;;;;;4407225;32;20144;-64
2021/01/24 04:44:30;;;;;;;11.40;7.30;;;3.30;93.30;;;;;;4401389;32;20200;-64
2021/01/24 04:46:58;;;;;;;14.70;7.20;;;3.20;93.40;;;;;;4396694;32;20701;-63
2021/01/24 04:49:26;;;;;;;14.07;7.60;;;3.10;93.50;;;;;;4404818;32;20204;-63
2021/01/24 04:51:52;;;;;;;11.07;6.60;;;3.10;93.60;;;;;;4401729;32;20223;-64
2021/01/24 04:54:19;;;;;;;16.43;7.30;;;3.00;93.80;;;;;;4404999;32;20716;-63
2021/01/24 04:56:46;;;;;;;8.97;6.27;;;3.00;93.90;;;;;;4405073;32;20183;-63
2021/01/24 04:59:12;;;;;;;13.43;6.37;;;3.00;93.90;;;;;;4400405;32;20195;-63
2021/01/24 05:01:42;;;;;;;8.97;5.20;;;3.00;93.90;;;;;;4405482;32;20211;-63
2021/01/24 05:04:08;;;;;;;8.67;5.30;;;3.00;93.90;;;;;;4405074;32;20203;-63
2021/01/24 05:06:35;;;;;;;9.50;5.03;;;2.90;94.00;;;;;;4407206;32;20191;-63
2021/01/24 05:09:03;;;;;;;10.07;4.70;;;2.90;94.00;;;;;;4405894;32;20272;-63
2021/01/24 05:11:29;;;;;;;7.07;4.50;;;2.80;94.10;;;;;;4399842;32;20197;-63
2021/01/24 05:14:13;;;;;;;7.60;4.40;;;2.80;94.20;;;;;;4403936;32;20186;-63
2021/01/24 05:16:41;;;;;;;10.03;4.23;;;2.90;94.20;;;;;;4398229;32;20226;-63
2021/01/24 05:19:08;;;;;;;6.13;4.00;;;2.90;94.30;;;;;;4394641;32;20588;-63
2021/01/24 05:21:37;;;;;;;7.10;3.17;;;2.90;94.30;;;;;;4405682;32;20195;-63
2021/01/24 05:24:04;;;;;;;5.93;3.63;;;2.90;94.20;;;;;;4400024;32;20157;-63
2021/01/24 05:26:30;;;;;;;6.63;3.43;;;2.90;94.50;;;;;;4402235;32;20216;-63
2021/01/24 05:28:56;;;;;;;6.17;3.70;;;2.90;94.20;;;;;;4403254;32;20206;-63
2021/01/24 05:31:23;;;;;;;5.43;2.90;;;2.80;94.20;;;;;;4405413;32;20175;-64
2021/01/24 05:33:49;;;;;;;9.53;3.50;;;2.90;94.10;;;;;;4404765;32;20601;-64
2021/01/24 05:36:15;;;;;;;6.00;2.80;;;2.80;94.10;;;;;;4405451;32;20212;-64
2021/01/24 05:38:43;;;;;;;6.43;3.10;;;2.80;94.10;;;;;;4402528;32;20161;-63
2021/01/24 05:41:11;;;;;;;6.93;2.80;;;2.80;94.30;;;;;;4404682;32;20493;-64
2021/01/24 05:43:39;;;;;;;4.20;2.63;;;2.70;94.10;;;;;;4400690;32;20186;-63
2021/01/24 05:46:06;;;;;;;7.47;3.50;;;2.60;94.20;;;;;;4404931;32;20184;-64
2021/01/24 05:48:35;;;;;;;7.77;2.70;;;2.60;94.20;;;;;;4406071;32;20627;-63
2021/01/24 05:51:01;;;;;;;6.40;2.70;;;2.50;94.20;;;;;;4404865;32;20212;-63
2021/01/24 05:53:28;;;;;;;7.43;3.17;;;2.50;94.30;;;;;;4404905;32;20454;-64
2021/01/24 05:55:56;;;;;;;3.43;2.67;;;2.40;94.60;;;;;;4404977;32;20865;-64
2021/01/24 05:58:23;;;;;;;6.10;2.90;;;2.40;94.70;;;;;;4404413;32;20207;-63
2021/01/24 06:00:52;;;;;;;8.83;2.50;;;2.50;94.80;;;;;;4402177;32;20156;-64
2021/01/24 06:03:19;;;;;;;4.37;2.80;;;2.30;94.80;;;;;;4405731;32;20195;-64
2021/01/24 06:05:46;;;;;;;5.70;3.07;;;2.30;94.80;;;;;;4400726;32;20157;-63
2021/01/24 06:08:14;;;;;;;6.13;2.80;;;2.30;94.80;;;;;;4406346;32;20527;-63
2021/01/24 06:10:41;;;;;;;6.57;3.47;;;2.30;94.90;;;;;;4404756;32;20216;-62
2021/01/24 06:13:15;;;;;;;5.70;3.00;;;2.30;94.80;;;;;;4404841;32;20258;-64
2021/01/24 06:15:43;;;;;;;4.87;3.30;;;2.30;94.90;;;;;;4404246;32;20640;-64
2021/01/24 06:18:15;;;;;;;2.93;2.60;;;2.30;94.90;;;;;;4404120;32;20195;-63
2021/01/24 06:20:46;;;;;;;5.47;2.83;;;2.30;94.80;;;;;;4401039;32;20203;-65
2021/01/24 06:23:19;;;;;;;4.37;2.53;;;2.30;94.90;;;;;;4397408;32;20152;-63
2021/01/24 06:25:49;;;;;;;3.43;2.60;;;2.30;94.80;;;;;;4401673;32;20529;-65
2021/01/24 06:28:20;;;;;;;3.80;2.40;;;2.20;94.70;;;;;;4401024;32;20163;-64
2021/01/24 06:30:48;;;;;;;5.70;2.40;;;2.20;94.80;;;;;;4404820;32;20215;-64
2021/01/24 06:33:16;;;;;;;7.10;2.80;;;2.20;94.70;;;;;;4404841;32;20693;-65
2021/01/24 06:35:51;;;;;;;5.53;2.67;;;2.20;94.70;;;;;;4404372;32;20585;-64
2021/01/24 06:38:29;;;;;;;5.50;2.50;;;2.10;94.80;;;;;;4403663;32;20168;-64
2021/01/24 06:40:56;;;;;;;5.70;2.20;;;2.20;94.80;;;;;;4404333;32;20203;-64
2021/01/24 06:43:34;;;;;;;6.27;2.70;;;2.20;94.80;;;;;;4405038;32;20152;-63
2021/01/24 06:46:01;;;;;;;5.67;2.40;;;2.10;94.90;;;;;;4398978;32;20186;-62
2021/01/24 06:48:47;;;;;;;5.23;2.23;;;2.10;94.90;;;;;;4401189;32;20230;-65
2021/01/24 06:51:34;;;;;;;4.27;2.37;;;2.00;95.00;;;;;;4404221;32;20163;-63
2021/01/24 06:54:02;;;;;;;6.80;2.40;;;2.10;94.90;;;;;;4402871;32;20634;-66
2021/01/24 06:56:42;;;;;;;6.00;2.77;;;2.10;94.90;;;;;;4405149;32;20222;-65
2021/01/24 06:59:10;;;;;;;5.13;2.30;;;2.00;94.90;;;;;;4403159;32;20174;-63
2021/01/24 07:01:37;;;;;;;5.77;2.23;;;2.00;94.90;;;;;;4403714;32;20611;-65
2021/01/24 07:04:43;;;;;;;3.93;2.47;;;2.00;94.90;;;;;;4403195;32;20175;-63
2021/01/24 07:07:33;;;;;;;6.03;2.00;;;2.00;94.90;;;;;;4404562;32;20208;-63
2021/01/24 07:10:01;;;;;;;3.40;1.90;;;2.00;95.00;;;;;;4405073;32;20156;-64
2021/01/24 07:12:41;;;;;;;3.43;2.10;;;1.90;95.00;;;;;;4405634;32;20676;-63
2021/01/24 07:15:19;;;;;;;5.90;2.53;;;1.90;95.20;;;;;;4405873;32;20230;-65
2021/01/24 07:17:54;;;;;;;6.60;2.70;;;1.90;95.20;;;;;;4404373;32;20568;-65
2021/01/24 07:20:21;;;;;;;3.47;2.43;;;1.80;95.30;;;;;;4402696;32;20640;-64
2021/01/24 07:22:48;;;;;;;3.47;2.40;;;1.70;95.20;;;;;;4405471;32;20267;-63
2021/01/24 07:25:17;;;;;;;4.37;2.70;;;1.70;95.10;;;;;;4404304;32;20597;-65
2021/01/24 07:27:44;;;;;;;5.93;2.60;;;1.70;95.30;;;;;;4402603;32;20305;-63
2021/01/24 07:30:12;;;;;;;3.73;2.47;;;1.70;95.20;;;;;;4405174;32;20199;-63
2021/01/24 07:32:40;;;;;;;5.63;3.00;;;1.60;95.20;;;;;;4404998;32;20218;-64
2021/01/24 07:35:07;;;;;;;6.30;2.53;;;1.60;95.30;;;;;;4406603;32;20159;-64
2021/01/24 07:37:36;;;;;;;4.77;2.70;;;1.60;95.30;;;;;;4404060;32;20227;-63
2021/01/24 07:40:03;;;;;;;3.63;2.20;;;1.60;95.30;;;;;;4403683;32;20215;-67
2021/01/24 07:42:29;;;;;;;4.50;2.50;;;1.60;95.20;;;;;;4405005;32;20181;-64
2021/01/24 07:44:56;;;;;;;4.60;2.23;;;1.60;95.20;;;;;;4405358;32;20269;-64
2021/01/24 07:47:23;;;;;;;5.77;2.20;;;1.60;95.20;;;;;;4405925;32;20174;-63
2021/01/24 07:49:49;;;;;;;2.97;2.27;;;1.60;95.20;;;;;;4404669;32;20211;-64
2021/01/24 07:52:19;;;;;;;4.73;2.30;;;1.60;95.20;;;;;;4405645;32;20185;-64
2021/01/24 07:54:45;;;;;;;3.43;2.47;;;1.60;95.20;;;;;;4406268;32;20221;-64
2021/01/24 07:57:12;;;;;;;4.33;2.43;;;1.60;95.20;;;;;;4405345;32;20643;-64
2021/01/24 07:59:39;;;;;;;2.33;1.77;;;1.60;95.20;;;;;;4405897;32;20534;-65
2021/01/24 08:02:05;;;;;;;4.37;2.00;;;1.60;95.20;;;;;;4405717;32;20199;-64
2021/01/24 08:04:36;;;;;;;2.43;1.70;;;1.50;95.30;;;;;;4404543;32;20675;-64
2021/01/24 08:07:05;;;;;;;4.10;2.20;;;1.50;95.30;;;;;;4402015;32;20515;-63
2021/01/24 08:09:32;;;;;;;2.70;1.40;;;1.50;95.30;;;;;;4406607;32;20219;-63
2021/01/24 08:11:58;;;;;;;2.53;1.67;;;1.50;95.20;;;;;;4404647;32;20236;-64
2021/01/24 08:14:25;;;;;;;8.17;1.70;;;1.50;95.30;;;;;;4404379;32;20262;-64
2021/01/24 08:16:53;;;;;;;3.97;1.67;;;1.50;95.40;;;;;;4403893;32;20160;-65
2021/01/24 08:19:23;;;;;;;7.73;2.27;;;1.40;95.40;;;;;;4401719;32;20227;-64
2021/01/24 08:21:51;;;;;;;5.33;1.83;;;1.40;95.50;;;;;;4404567;32;20218;-65
2021/01/24 08:24:18;;;;;;;3.37;2.00;;;1.40;95.50;;;;;;4403877;32;20605;-64
2021/01/24 08:26:45;;;;;;;2.47;1.40;;;1.40;95.40;;;;;;4403608;32;20542;-65
2021/01/24 08:29:12;;;;;;;3.30;1.80;;;1.50;95.50;;;;;;4404036;32;20218;-65
2021/01/24 08:31:40;;;;;;;5.93;2.80;;;1.50;95.50;;;;;;4404112;32;20597;-64
2021/01/24 08:34:06;;;;;;;3.77;2.27;;;1.50;95.50;;;;;;4404009;32;20234;-64
2021/01/24 08:36:34;;;;;;;3.57;1.90;;;1.50;95.50;;;;;;4404237;32;20159;-64
2021/01/24 08:39:01;;;;;;;2.97;1.70;;;1.60;95.60;;;;;;4403211;32;20183;-66
2021/01/24 08:41:30;;;;;;;4.23;1.80;;;1.60;95.70;;;;;;4403476;32;20280;-65
2021/01/24 08:44:09;;;;;;;2.87;1.97;;;1.70;95.80;;;;;;4401524;32;20211;-64
2021/01/24 08:46:38;;;;;;;6.17;2.27;;;1.80;96.00;;;;;;4405248;32;20182;-64
2021/01/24 08:49:07;;;;;;;4.30;2.93;;;1.90;96.10;;;;;;4404629;32;20371;-65
2021/01/24 08:51:47;;;;;;;4.07;2.70;;;2.00;96.10;;;;;;4404365;32;20218;-64
2021/01/24 08:54:25;;;;;;;4.50;2.63;;;2.10;96.30;;;;;;4402285;32;20160;-64
2021/01/24 08:57:06;;;;;;;7.17;2.67;;;2.50;97.90;;;;;;4403299;32;20211;-66
2021/01/24 08:59:35;;;;;;;6.67;2.70;;;2.90;98.50;;;;;;4402447;32;20580;-66
2021/01/24 09:02:03;;;;;;;4.50;2.00;;;3.00;98.00;;;;;;4400165;32;20176;-65
2021/01/24 09:04:30;;;;;;;3.93;2.17;;;2.90;96.30;;;;;;4403413;32;20226;-64
2021/01/24 09:07:08;;;;;;;5.57;2.07;;;2.70;95.50;;;;;;4405788;32;20228;-65
2021/01/24 09:09:37;;;;;;;3.33;1.80;;;2.50;95.40;;;;;;4405566;32;20187;-65
2021/01/24 09:12:03;;;;;;;5.70;2.77;;;2.50;95.60;;;;;;4402429;32;20260;-64
2021/01/24 09:14:30;;;;;;;7.23;3.53;;;2.50;95.60;;;;;;4403508;32;20228;-64
2021/01/24 09:17:01;;;;;;;4.50;2.40;;;2.50;95.50;;;;;;4401466;32;20160;-65
2021/01/24 09:19:27;;;;;;;10.40;4.93;;;2.50;95.50;;;;;;4401584;32;20171;-65
2021/01/24 09:21:54;;;;;;;9.03;6.83;;;2.50;95.50;;;;;;4403638;32;20190;-63
2021/01/24 09:24:20;;;;;;;6.77;3.70;;;2.60;95.40;;;;;;4404897;32;20175;-65
2021/01/24 09:26:47;;;;;;;4.63;3.10;;;2.60;95.40;;;;;;4404119;32;20244;-64
2021/01/24 09:29:14;;;;;;;5.50;1.90;;;2.70;95.60;;;;;;4402585;32;20171;-64
2021/01/24 09:31:41;;;;;;;2.40;1.93;;;2.70;95.20;;;;;;4403443;32;20210;-63
2021/01/24 09:34:07;;;;;;;8.57;2.20;;;2.70;95.10;;;;;;4402253;32;20271;-64
2021/01/24 09:36:34;;;;;;;8.87;2.40;;;2.70;94.90;;;;;;4403712;32;20171;-64
2021/01/24 09:39:00;;;;;;;3.20;2.00;;;2.80;94.80;;;;;;4403005;32;20216;-64
2021/01/24 09:41:27;;;;;;;3.03;1.80;;;2.80;94.50;;;;;;4404231;32;20594;-64
2021/01/24 09:43:54;;;;;;;6.37;1.70;;;2.80;94.20;;;;;;4404126;32;20194;-64
2021/01/24 09:46:20;;;;;;;4.27;2.03;;;2.80;94.10;;;;;;4402568;32;20672;-63
2021/01/24 09:48:47;;;;;;;4.73;1.63;;;2.80;94.00;;;;;;4404503;32;20611;-64
2021/01/24 09:51:13;;;;;;;4.43;2.67;;;2.90;93.90;;;;;;4405023;32;20156;-64
2021/01/24 09:53:39;;;;;;;5.87;1.73;;;2.90;93.90;;;;;;4405069;32;20588;-64
2021/01/24 09:56:06;;;;;;;5.73;1.67;;;2.90;93.90;;;;;;4405405;32;20223;-65
2021/01/24 09:58:33;;;;;;;4.53;1.77;;;3.00;93.70;;;;;;4404805;32;20156;-63
2021/01/24 10:01:00;;;;;;;2.40;1.60;;;3.00;93.70;;;;;;4403782;32;20152;-64
2021/01/24 10:03:27;;;;;;;5.03;2.13;;;3.00;93.80;;;;;;4404311;32;20183;-63
2021/01/24 10:05:53;;;;;;;2.67;1.90;;;3.10;93.60;;;;;;4404920;32;20216;-65
2021/01/24 10:08:19;;;;;;;3.27;1.80;;;3.10;93.40;;;;;;4404464;32;20206;-64
2021/01/24 10:10:46;;;;;;;4.40;1.70;;;3.20;93.50;;;;;;4405042;32;20219;-64
2021/01/24 10:13:13;;;;;;;6.13;1.77;;;3.30;93.20;;;;;;4400696;32;20173;-65
2021/01/24 10:15:40;;;;;;;4.23;1.47;;;3.30;93.10;;;;;;4401109;32;20164;-65
2021/01/24 10:18:08;;;;;;;3.30;1.70;;;3.30;93.10;;;;;;4403404;32;20208;-64
2021/01/24 10:20:34;;;;;;;4.87;1.80;;;3.40;93.10;;;;;;4405142;32;20194;-65
2021/01/24 10:23:01;;;;;;;5.73;1.63;;;3.50;93.10;;;;;;4406021;32;20220;-64
2021/01/24 10:25:27;;;;;;;7.20;1.80;;;3.50;93.00;;;;;;4403369;32;20224;-64
2021/01/24 10:27:54;;;;;;;5.13;1.80;;;3.50;92.70;;;;;;4403795;32;20155;-65
2021/01/24 10:30:21;;;;;;;4.27;2.30;;;3.60;92.60;;;;;;4404309;32;20231;-63
2021/01/24 10:32:47;;;;;;;4.03;1.87;;;3.60;92.60;;;;;;4405142;32;20174;-64
2021/01/24 10:35:15;;;;;;;6.80;1.90;;;3.70;92.50;;;;;;4402691;32;20526;-64
2021/01/24 10:37:41;;;;;;;5.37;1.80;;;3.70;92.50;;;;;;4403601;32;20609;-64
2021/01/24 10:40:08;;;;;;;5.57;1.87;;;3.70;92.20;;;;;;4401718;32;20181;-63
2021/01/24 10:42:38;;;;;;;7.90;2.00;;;3.90;92.00;;;;;;4404121;32;20580;-64
2021/01/24 10:45:05;;;;;;;3.93;1.90;;;3.90;92.00;;;;;;4405620;32;20198;-64
2021/01/24 10:47:32;;;;;;;7.27;2.47;;;4.00;91.90;;;;;;4402973;32;20148;-65
2021/01/24 10:49:58;;;;;;;5.93;2.67;;;4.00;92.00;;;;;;4398832;32;20223;-64
2021/01/24 10:52:25;;;;;;;7.20;2.40;;;4.10;92.00;;;;;;4402492;32;20222;-64
2021/01/24 10:54:52;;;;;;;6.73;2.57;;;4.20;91.80;;;;;;4404970;32;20151;-64
2021/01/24 10:57:18;;;;;;;4.27;2.23;;;4.30;91.40;;;;;;4405126;32;20542;-63
2021/01/24 10:59:44;;;;;;;5.37;2.07;;;4.50;91.40;;;;;;4404271;32;20203;-64
2021/01/24 11:02:11;;;;;;;3.83;1.80;;;4.80;91.10;;;;;;4400994;32;20151;-64
2021/01/24 11:04:37;;;;;;;7.70;2.60;;;5.60;89.50;;;;;;4402009;32;20236;-63
2021/01/24 11:07:04;;;;;;;5.53;2.33;;;6.10;86.20;;;;;;4406101;32;20230;-64
2021/01/24 11:09:31;;;;;;;7.97;2.27;;;6.20;84.70;;;;;;4401281;32;20717;-63
2021/01/24 11:11:59;;;;;;;7.37;2.63;;;6.30;84.30;;;;;;4403581;32;20247;-63
2021/01/24 11:14:25;;;;;;;8.10;2.20;;;6.30;84.40;;;;;;4406018;32;20199;-64
2021/01/24 11:16:52;;;;;;;7.70;2.53;;;6.10;84.40;;;;;;4407003;32;20606;-64
2021/01/24 11:19:18;;;;;;;10.03;2.70;;;5.90;83.70;;;;;;4400059;32;20178;-64
2021/01/24 11:21:44;;;;;;;11.07;3.87;;;5.60;86.80;;;;;;4404775;32;20193;-64
2021/01/24 11:24:11;;;;;;;7.33;3.20;;;5.20;89.40;;;;;;4403715;32;20247;-63
2021/01/24 11:26:38;;;;;;;7.63;2.90;;;4.90;90.60;;;;;;4399015;32;20226;-64
2021/01/24 11:29:05;;;;;;;7.10;3.10;;;4.70;90.50;;;;;;4393026;32;20208;-63
2021/01/24 11:31:31;;;;;;;8.13;2.90;;;4.90;91.00;;;;;;4405861;32;20263;-64
2021/01/24 11:33:58;;;;;;;5.13;3.23;;;4.80;90.50;;;;;;4402658;32;20217;-64
2021/01/24 11:36:24;;;;;;;8.83;3.27;;;4.80;90.50;;;;;;4403029;32;20156;-64
2021/01/24 11:38:50;;;;;;;7.37;3.67;;;4.80;91.10;;;;;;4401956;32;20203;-64
2021/01/24 11:41:16;;;;;;;7.00;4.10;;;4.80;90.80;;;;;;4404436;32;20242;-65
2021/01/24 11:43:45;;;;;;;9.03;4.20;;;4.70;91.10;;;;;;4405618;32;20564;-64
2021/01/24 11:46:11;;;;;;;10.50;4.20;;;4.60;90.80;;;;;;4399282;32;20590;-64
2021/01/24 11:48:37;;;;;;;16.30;5.20;;;4.50;90.70;;;;;;4404244;32;20219;-65
2021/01/24 11:51:05;;;;;;;9.20;4.67;;;4.60;90.60;;;;;;4407742;32;20175;-64
2021/01/24 11:53:31;;;;;;;14.17;4.73;;;5.00;90.00;;;;;;4405464;32;20668;-65
2021/01/24 11:55:58;;;;;;;12.97;4.33;;;5.40;87.70;;;;;;4404978;32;20217;-64
2021/01/24 11:58:24;;;;;;;10.43;4.80;;;5.70;86.80;;;;;;4406927;32;20282;-65
2021/01/24 12:00:51;;;;;;;11.73;4.93;;;5.70;85.20;;;;;;4404907;32;20179;-64
2021/01/24 12:03:17;;;;;;;8.57;4.60;;;5.60;85.00;;;;;;4404634;32;20255;-64
2021/01/24 12:05:43;;;;;;;12.60;6.13;;;5.60;86.00;;;;;;4404453;32;20226;-64
2021/01/24 12:08:10;;;;;;;11.77;5.40;;;5.70;85.10;;;;;;4404556;32;20667;-65
2021/01/24 12:10:36;;;;;;;8.33;4.70;;;5.80;84.90;;;;;;4403892;32;20304;-65
2021/01/24 12:13:04;;;;;;;10.47;4.80;;;5.90;84.00;;;;;;4397812;32;20283;-65
2021/01/24 12:15:30;;;;;;;14.97;5.33;;;5.70;83.30;;;;;;4397428;32;20468;-65
2021/01/24 12:17:57;;;;;;;9.73;4.70;;;5.50;83.80;;;;;;4404694;32;20194;-65
2021/01/24 12:20:24;;;;;;;9.30;4.63;;;5.30;84.60;;;;;;4404988;32;20213;-65
2021/01/24 12:22:50;;;;;;;13.57;4.53;;;5.20;85.00;;;;;;4404519;32;20212;-65
2021/01/24 12:25:16;;;;;;;8.60;4.17;;;5.40;84.90;;;;;;4404675;32;20160;-65
2021/01/24 12:27:43;;;;;;;8.53;4.60;;;5.50;84.70;;;;;;4404145;32;20246;-65
2021/01/24 12:30:10;;;;;;;11.20;4.50;;;5.70;83.60;;;;;;4403836;32;20227;-65
2021/01/24 12:32:36;;;;;;;10.97;5.07;;;5.80;83.50;;;;;;4406180;32;20704;-65
2021/01/24 12:35:05;;;;;;;6.00;3.77;;;6.10;82.30;;;;;;4405167;32;20192;-65
2021/01/24 12:37:31;;;;;;;10.53;4.50;;;6.20;81.60;;;;;;4403601;32;20223;-65
2021/01/24 12:39:57;;;;;;;8.37;4.13;;;6.30;79.40;;;;;;4402634;32;20219;-65
2021/01/24 12:42:23;;;;;;;8.17;3.57;;;6.30;80.30;;;;;;4402095;32;20182;-65
2021/01/24 12:44:49;;;;;;;5.27;3.10;;;6.50;80.20;;;;;;4402005;32;20583;-65
2021/01/24 12:47:16;;;;;;;7.20;3.67;;;6.60;79.50;;;;;;4403757;32;20624;-64
2021/01/24 12:49:42;;;;;;;6.27;3.50;;;6.80;78.00;;;;;;4404245;32;20160;-65
2021/01/24 12:52:09;;;;;;;8.57;3.13;;;6.80;76.90;;;;;;4403373;32;20647;-65
2021/01/24 12:54:35;;;;;;;8.23;3.60;;;6.80;75.50;;;;;;4406974;32;20177;-65